Share

Ada, Ghana

Tokoin (DXXX) Elev 82 ft | 6.17 °N, 1.25 °E | Change Station

Current weather conditions updated 7 minutes ago

Scattered Clouds
Scattered Clouds
88 °F
Feels Like 100 °F
N
9
Wind Variable Wind from South
Sunrise 5:49 AM
Sunset 6:04 PM
Moon Waning Gibbous

Today is forecast to be nearly the same temperature as yesterday. Slight chance of a thunderstorm tonight.

Pressure 29.89 in
Visibility 6.2 miles
Clouds Scattered Clouds 1500 ft
Heat Index 100 °F
Dew Point 77 °F
Humidity 70%
Rainfall 0.00 in
Snow Depth Not available.
UV 12 out of 16
Pollen Not available.
Air Quality Not available.
Flu Activity Not available.
METAR DXXX 181030Z 19008KT 170V230 9999 SCT015 31/25 Q1012 NOSIG

More Conditions Fewer Conditions

Pressure 29.89 in
Visibility 6.2 miles
Clouds Scattered Clouds 1500 ft
Heat Index 100 °F
Dew Point 77 °F
Humidity 70%
Rainfall 0.00 in
Snow Depth Not available.
UV 12 out of 16
Pollen Not available.
Air Quality Not available.
Flu Activity Not available.
METAR DXXX 181030Z 19008KT 170V230 9999 SCT015 31/25 Q1012 NOSIG

More Conditions Fewer Conditions

10-Day Forecast

Almanac

Astronomy

Apr. 18, 2014 Rise Set
Actual Time 5:49 AM GMT 6:04 PM GMT
Civil Twilight 5:27 AM GMT 6:25 PM GMT
Nautical Twilight 5:03 AM GMT 6:50 PM GMT
Astronomical Twilight 4:38 AM GMT 7:15 PM GMT
Moon 9:08 PM GMT 8:23 AM GMT
Length of Visible Light 12h 58m
Length of Day
12h 15m
Tomorrow will be 0m 18s longer.
Waning Gibbous, 89% of the Moon is Illuminated
Today
Waning Gibbous
Apr 22
Last Quarter
Apr 29
New
May 6
First Quarter
May 14
Full

Yesterday's Extremes

Country Highs Country Lows

Community

  • SUNRISE THROUGH THE TREES.
    SUNRISE THROUGH THE TREES.
  • Dog Wood Blossoms
    Dog Wood Blossoms
  • Morning Light
    Morning Light
  • New Day
    New Day
  • Lake Michigan Sunrise
    Lake Michigan Sunrise

WunderPhotos

Upload Photos

1,702,306 photos uploaded!

Nearby

Snow Depth

Not available.

Coastal Water Temperatures

Place Temperature
No Stations Reporting

Earthquake Activity

City Distance Mag. Time & Date
No recent earthquake activity has been reported nearby.
Minimum magnitude displayed is 2.5.

Nearby Weather Stations

There are no personal weather stations in this area.

What do you think?

We're not finished. Please let us know what you like, what you don't like, and what you are still missing.